sensor_id;sensor_type;location;lat;lon;timestamp;temperature;humidity
16955;DHT22;8594;52.052;8.354;2023-08-01T00:01:29;18.00;99.90
16955;DHT22;8594;52.052;8.354;2023-08-01T00:03:56;17.90;99.90
16955;DHT22;8594;52.052;8.354;2023-08-01T00:06:23;17.90;99.90
16955;DHT22;8594;52.052;8.354;2023-08-01T00:08:50;17.90;99.90
16955;DHT22;8594;52.052;8.354;2023-08-01T00:11:18;17.90;99.90
16955;DHT22;8594;52.052;8.354;2023-08-01T00:13:45;17.80;99.90
16955;DHT22;8594;52.052;8.354;2023-08-01T00:16:12;17.80;99.90
16955;DHT22;8594;52.052;8.354;2023-08-01T00:18:39;17.80;99.90
16955;DHT22;8594;52.052;8.354;2023-08-01T00:21:06;17.70;99.90
16955;DHT22;8594;52.052;8.354;2023-08-01T00:23:35;17.70;99.90
16955;DHT22;8594;52.052;8.354;2023-08-01T00:26:02;17.60;99.90
16955;DHT22;8594;52.052;8.354;2023-08-01T00:28:31;17.50;99.90
16955;DHT22;8594;52.052;8.354;2023-08-01T00:31:04;17.70;99.90
16955;DHT22;8594;52.052;8.354;2023-08-01T00:33:32;17.70;99.90
16955;DHT22;8594;52.052;8.354;2023-08-01T00:35:59;17.70;99.90
16955;DHT22;8594;52.052;8.354;2023-08-01T00:38:26;17.60;99.90
16955;DHT22;8594;52.052;8.354;2023-08-01T00:40:53;17.50;99.90
16955;DHT22;8594;52.052;8.354;2023-08-01T00:43:20;17.50;99.90
16955;DHT22;8594;52.052;8.354;2023-08-01T00:45:49;17.70;99.90
16955;DHT22;8594;52.052;8.354;2023-08-01T00:48:16;17.70;99.90
16955;DHT22;8594;52.052;8.354;2023-08-01T00:50:44;17.60;99.90
16955;DHT22;8594;52.052;8.354;2023-08-01T00:53:12;17.50;99.90
16955;DHT22;8594;52.052;8.354;2023-08-01T00:55:39;17.50;99.90
16955;DHT22;8594;52.052;8.354;2023-08-01T00:58:06;17.40;99.90
16955;DHT22;8594;52.052;8.354;2023-08-01T01:00:33;17.50;99.90
16955;DHT22;8594;52.052;8.354;2023-08-01T01:03:01;17.40;99.90
16955;DHT22;8594;52.052;8.354;2023-08-01T01:05:31;17.50;99.90
16955;DHT22;8594;52.052;8.354;2023-08-01T01:08:03;17.50;99.90
16955;DHT22;8594;52.052;8.354;2023-08-01T01:10:31;17.50;99.90
16955;DHT22;8594;52.052;8.354;2023-08-01T01:12:58;17.60;99.90
16955;DHT22;8594;52.052;8.354;2023-08-01T01:15:25;17.50;99.90
16955;DHT22;8594;52.052;8.354;2023-08-01T01:17:52;17.50;99.90
16955;DHT22;8594;52.052;8.354;2023-08-01T01:20:22;17.30;99.90
16955;DHT22;8594;52.052;8.354;2023-08-01T01:22:51;17.30;99.90
16955;DHT22;8594;52.052;8.354;2023-08-01T01:25:20;17.40;99.90
16955;DHT22;8594;52.052;8.354;2023-08-01T01:27:49;17.40;99.90
16955;DHT22;8594;52.052;8.354;2023-08-01T01:30:18;17.30;99.90
16955;DHT22;8594;52.052;8.354;2023-08-01T01:32:46;17.20;99.90
16955;DHT22;8594;52.052;8.354;2023-08-01T01:35:14;17.10;99.90
16955;DHT22;8594;52.052;8.354;2023-08-01T01:37:41;17.10;99.90
16955;DHT22;8594;52.052;8.354;2023-08-01T01:40:10;17.20;99.90
16955;DHT22;8594;52.052;8.354;2023-08-01T01:42:37;17.30;99.90
16955;DHT22;8594;52.052;8.354;2023-08-01T01:45:05;17.30;99.90
16955;DHT22;8594;52.052;8.354;2023-08-01T01:47:32;17.40;99.90
16955;DHT22;8594;52.052;8.354;2023-08-01T01:49:59;17.30;99.90
16955;DHT22;8594;52.052;8.354;2023-08-01T01:52:26;17.30;99.90
16955;DHT22;8594;52.052;8.354;2023-08-01T01:54:53;17.40;99.90
16955;DHT22;8594;52.052;8.354;2023-08-01T01:57:21;17.40;99.90
16955;DHT22;8594;52.052;8.354;2023-08-01T01:59:48;17.30;99.90
16955;DHT22;8594;52.052;8.354;2023-08-01T02:02:14;17.40;99.90
16955;DHT22;8594;52.052;8.354;2023-08-01T02:04:41;17.40;99.90
16955;DHT22;8594;52.052;8.354;2023-08-01T02:07:08;17.30;99.90
16955;DHT22;8594;52.052;8.354;2023-08-01T02:09:35;17.30;99.90
16955;DHT22;8594;52.052;8.354;2023-08-01T02:12:02;17.40;99.90
16955;DHT22;8594;52.052;8.354;2023-08-01T02:14:31;17.40;99.90
16955;DHT22;8594;52.052;8.354;2023-08-01T02:16:58;17.30;99.90
16955;DHT22;8594;52.052;8.354;2023-08-01T02:19:25;17.30;99.90
16955;DHT22;8594;52.052;8.354;2023-08-01T02:21:51;17.40;99.90
16955;DHT22;8594;52.052;8.354;2023-08-01T02:24:18;17.40;99.90
16955;DHT22;8594;52.052;8.354;2023-08-01T02:26:45;17.60;99.90
16955;DHT22;8594;52.052;8.354;2023-08-01T02:29:12;17.50;99.90
16955;DHT22;8594;52.052;8.354;2023-08-01T02:31:40;17.50;99.90
16955;DHT22;8594;52.052;8.354;2023-08-01T02:34:07;17.50;99.90
16955;DHT22;8594;52.052;8.354;2023-08-01T02:36:34;17.40;99.90
16955;DHT22;8594;52.052;8.354;2023-08-01T02:39:01;17.40;99.90
16955;DHT22;8594;52.052;8.354;2023-08-01T02:41:28;17.30;99.90
16955;DHT22;8594;52.052;8.354;2023-08-01T02:43:55;17.50;99.90
16955;DHT22;8594;52.052;8.354;2023-08-01T02:46:22;17.40;99.90
16955;DHT22;8594;52.052;8.354;2023-08-01T02:48:50;17.30;99.90
16955;DHT22;8594;52.052;8.354;2023-08-01T02:51:18;17.40;99.90
16955;DHT22;8594;52.052;8.354;2023-08-01T02:53:45;17.40;99.90
16955;DHT22;8594;52.052;8.354;2023-08-01T02:56:12;17.30;99.90
16955;DHT22;8594;52.052;8.354;2023-08-01T02:58:38;17.30;99.90
16955;DHT22;8594;52.052;8.354;2023-08-01T03:01:06;17.30;99.90
16955;DHT22;8594;52.052;8.354;2023-08-01T03:03:34;17.30;99.90
16955;DHT22;8594;52.052;8.354;2023-08-01T03:06:03;17.30;99.90
16955;DHT22;8594;52.052;8.354;2023-08-01T03:08:30;17.30;99.90
16955;DHT22;8594;52.052;8.354;2023-08-01T03:10:57;17.40;99.90
16955;DHT22;8594;52.052;8.354;2023-08-01T03:13:24;17.40;99.90
16955;DHT22;8594;52.052;8.354;2023-08-01T03:15:51;17.40;99.90
16955;DHT22;8594;52.052;8.354;2023-08-01T03:18:18;17.40;99.90
16955;DHT22;8594;52.052;8.354;2023-08-01T03:20:44;17.40;99.90
16955;DHT22;8594;52.052;8.354;2023-08-01T03:23:13;17.30;99.90
16955;DHT22;8594;52.052;8.354;2023-08-01T03:25:40;17.30;99.90
16955;DHT22;8594;52.052;8.354;2023-08-01T03:28:07;17.30;99.90
16955;DHT22;8594;52.052;8.354;2023-08-01T03:30:34;17.30;99.90
16955;DHT22;8594;52.052;8.354;2023-08-01T03:33:01;17.30;99.90
16955;DHT22;8594;52.052;8.354;2023-08-01T03:35:29;17.20;99.90
16955;DHT22;8594;52.052;8.354;2023-08-01T03:37:55;17.20;99.90
16955;DHT22;8594;52.052;8.354;2023-08-01T03:40:24;17.30;99.90
16955;DHT22;8594;52.052;8.354;2023-08-01T03:42:51;17.30;99.90
16955;DHT22;8594;52.052;8.354;2023-08-01T03:45:18;17.40;99.90
16955;DHT22;8594;52.052;8.354;2023-08-01T03:47:45;17.40;99.90
16955;DHT22;8594;52.052;8.354;2023-08-01T03:50:12;17.30;99.90
16955;DHT22;8594;52.052;8.354;2023-08-01T03:52:39;17.40;99.90
16955;DHT22;8594;52.052;8.354;2023-08-01T03:55:06;17.30;99.90
16955;DHT22;8594;52.052;8.354;2023-08-01T03:57:35;17.40;99.90
16955;DHT22;8594;52.052;8.354;2023-08-01T04:00:05;17.30;99.90
16955;DHT22;8594;52.052;8.354;2023-08-01T04:02:39;17.30;99.90
16955;DHT22;8594;52.052;8.354;2023-08-01T04:05:07;17.20;99.90
16955;DHT22;8594;52.052;8.354;2023-08-01T04:07:35;17.20;99.90
16955;DHT22;8594;52.052;8.354;2023-08-01T04:10:02;17.30;99.90
16955;DHT22;8594;52.052;8.354;2023-08-01T04:12:31;17.40;99.90
16955;DHT22;8594;52.052;8.354;2023-08-01T04:15:00;17.30;99.90
16955;DHT22;8594;52.052;8.354;2023-08-01T04:17:27;17.40;99.90
16955;DHT22;8594;52.052;8.354;2023-08-01T04:19:55;17.40;99.90
16955;DHT22;8594;52.052;8.354;2023-08-01T04:22:22;17.40;99.90
16955;DHT22;8594;52.052;8.354;2023-08-01T04:24:48;17.50;99.90
16955;DHT22;8594;52.052;8.354;2023-08-01T04:27:15;17.50;99.90
16955;DHT22;8594;52.052;8.354;2023-08-01T04:29:42;17.50;99.90
16955;DHT22;8594;52.052;8.354;2023-08-01T04:32:10;17.40;99.90
16955;DHT22;8594;52.052;8.354;2023-08-01T04:34:39;17.30;99.90
16955;DHT22;8594;52.052;8.354;2023-08-01T04:37:06;17.40;99.90
16955;DHT22;8594;52.052;8.354;2023-08-01T04:39:33;17.40;99.90
16955;DHT22;8594;52.052;8.354;2023-08-01T04:42:00;17.60;99.90
16955;DHT22;8594;52.052;8.354;2023-08-01T04:44:27;17.70;99.90
16955;DHT22;8594;52.052;8.354;2023-08-01T04:46:55;17.70;99.90
16955;DHT22;8594;52.052;8.354;2023-08-01T04:49:23;17.60;99.90
16955;DHT22;8594;52.052;8.354;2023-08-01T04:51:50;17.50;99.90
16955;DHT22;8594;52.052;8.354;2023-08-01T04:54:17;17.50;99.90
16955;DHT22;8594;52.052;8.354;2023-08-01T04:56:44;17.60;99.90
16955;DHT22;8594;52.052;8.354;2023-08-01T04:59:11;17.60;99.90
16955;DHT22;8594;52.052;8.354;2023-08-01T05:01:38;17.60;99.90
16955;DHT22;8594;52.052;8.354;2023-08-01T05:04:05;17.70;99.90
16955;DHT22;8594;52.052;8.354;2023-08-01T05:06:33;17.60;99.90
16955;DHT22;8594;52.052;8.354;2023-08-01T05:09:00;17.60;99.90
16955;DHT22;8594;52.052;8.354;2023-08-01T05:11:27;17.60;99.90
16955;DHT22;8594;52.052;8.354;2023-08-01T05:13:54;17.50;99.90
16955;DHT22;8594;52.052;8.354;2023-08-01T05:16:21;17.50;99.90
16955;DHT22;8594;52.052;8.354;2023-08-01T05:18:48;17.60;99.90
16955;DHT22;8594;52.052;8.354;2023-08-01T05:21:15;17.70;99.90
16955;DHT22;8594;52.052;8.354;2023-08-01T05:23:43;17.70;99.90
16955;DHT22;8594;52.052;8.354;2023-08-01T05:26:10;17.70;99.90
16955;DHT22;8594;52.052;8.354;2023-08-01T05:28:37;17.70;99.90
16955;DHT22;8594;52.052;8.354;2023-08-01T05:31:03;17.60;99.90
16955;DHT22;8594;52.052;8.354;2023-08-01T05:33:30;17.60;99.90
16955;DHT22;8594;52.052;8.354;2023-08-01T05:35:57;17.60;99.90
16955;DHT22;8594;52.052;8.354;2023-08-01T05:38:24;17.60;99.90
16955;DHT22;8594;52.052;8.354;2023-08-01T05:40:52;17.70;99.90
16955;DHT22;8594;52.052;8.354;2023-08-01T05:43:19;17.60;99.90
16955;DHT22;8594;52.052;8.354;2023-08-01T05:45:46;17.50;99.90
16955;DHT22;8594;52.052;8.354;2023-08-01T05:48:13;17.50;99.90
16955;DHT22;8594;52.052;8.354;2023-08-01T05:50:40;17.60;99.90
16955;DHT22;8594;52.052;8.354;2023-08-01T05:53:07;17.70;99.90
16955;DHT22;8594;52.052;8.354;2023-08-01T05:55:34;17.60;99.90
16955;DHT22;8594;52.052;8.354;2023-08-01T05:58:02;17.60;99.90
16955;DHT22;8594;52.052;8.354;2023-08-01T06:00:29;17.60;99.90
16955;DHT22;8594;52.052;8.354;2023-08-01T06:02:56;17.60;99.90
16955;DHT22;8594;52.052;8.354;2023-08-01T06:05:23;17.60;99.90
16955;DHT22;8594;52.052;8.354;2023-08-01T06:07:50;17.60;99.90
16955;DHT22;8594;52.052;8.354;2023-08-01T06:10:17;17.60;99.90
16955;DHT22;8594;52.052;8.354;2023-08-01T06:12:44;17.60;99.90
16955;DHT22;8594;52.052;8.354;2023-08-01T06:15:13;17.60;99.90
16955;DHT22;8594;52.052;8.354;2023-08-01T06:17:40;17.70;99.90
16955;DHT22;8594;52.052;8.354;2023-08-01T06:20:08;17.70;99.90
16955;DHT22;8594;52.052;8.354;2023-08-01T06:22:35;17.70;99.90
16955;DHT22;8594;52.052;8.354;2023-08-01T06:25:03;17.80;99.90
16955;DHT22;8594;52.052;8.354;2023-08-01T06:27:30;17.70;99.90
16955;DHT22;8594;52.052;8.354;2023-08-01T06:29:57;17.70;99.90
16955;DHT22;8594;52.052;8.354;2023-08-01T06:32:25;17.60;99.90
16955;DHT22;8594;52.052;8.354;2023-08-01T06:34:52;17.70;99.90
16955;DHT22;8594;52.052;8.354;2023-08-01T06:37:19;17.70;99.90
16955;DHT22;8594;52.052;8.354;2023-08-01T06:39:46;17.60;99.90
16955;DHT22;8594;52.052;8.354;2023-08-01T06:42:13;17.70;99.90
16955;DHT22;8594;52.052;8.354;2023-08-01T06:44:41;17.60;99.90
16955;DHT22;8594;52.052;8.354;2023-08-01T06:47:08;17.70;99.90
16955;DHT22;8594;52.052;8.354;2023-08-01T06:49:36;17.90;99.90
16955;DHT22;8594;52.052;8.354;2023-08-01T06:52:04;17.90;99.90
16955;DHT22;8594;52.052;8.354;2023-08-01T06:54:32;17.90;99.90
16955;DHT22;8594;52.052;8.354;2023-08-01T06:56:58;17.80;99.90
16955;DHT22;8594;52.052;8.354;2023-08-01T06:59:26;17.90;99.90
16955;DHT22;8594;52.052;8.354;2023-08-01T07:01:53;17.80;99.90
16955;DHT22;8594;52.052;8.354;2023-08-01T07:04:20;17.90;99.90
16955;DHT22;8594;52.052;8.354;2023-08-01T07:06:48;17.90;99.90
16955;DHT22;8594;52.052;8.354;2023-08-01T07:09:15;17.70;99.90
16955;DHT22;8594;52.052;8.354;2023-08-01T07:11:42;17.70;99.90
16955;DHT22;8594;52.052;8.354;2023-08-01T07:14:08;17.60;99.90
16955;DHT22;8594;52.052;8.354;2023-08-01T07:16:37;17.80;99.90
16955;DHT22;8594;52.052;8.354;2023-08-01T07:19:03;17.80;99.90
16955;DHT22;8594;52.052;8.354;2023-08-01T07:21:30;17.80;99.90
16955;DHT22;8594;52.052;8.354;2023-08-01T07:23:58;17.90;99.90
16955;DHT22;8594;52.052;8.354;2023-08-01T07:26:25;17.90;99.90
16955;DHT22;8594;52.052;8.354;2023-08-01T07:28:54;18.10;99.90
16955;DHT22;8594;52.052;8.354;2023-08-01T07:31:21;18.30;99.90
16955;DHT22;8594;52.052;8.354;2023-08-01T07:33:48;18.40;99.90
16955;DHT22;8594;52.052;8.354;2023-08-01T07:36:14;18.40;99.90
16955;DHT22;8594;52.052;8.354;2023-08-01T07:38:41;18.30;99.90
16955;DHT22;8594;52.052;8.354;2023-08-01T07:41:09;18.30;99.90
16955;DHT22;8594;52.052;8.354;2023-08-01T07:43:36;18.60;99.90
16955;DHT22;8594;52.052;8.354;2023-08-01T07:46:03;18.50;99.90
16955;DHT22;8594;52.052;8.354;2023-08-01T07:48:30;18.60;99.90
16955;DHT22;8594;52.052;8.354;2023-08-01T07:50:57;18.60;99.90
16955;DHT22;8594;52.052;8.354;2023-08-01T07:53:24;18.60;99.90
16955;DHT22;8594;52.052;8.354;2023-08-01T07:55:52;18.80;99.90
16955;DHT22;8594;52.052;8.354;2023-08-01T07:58:20;18.90;99.90
16955;DHT22;8594;52.052;8.354;2023-08-01T08:00:47;18.70;99.90
16955;DHT22;8594;52.052;8.354;2023-08-01T08:03:14;18.60;99.90
16955;DHT22;8594;52.052;8.354;2023-08-01T08:05:41;18.70;99.90
16955;DHT22;8594;52.052;8.354;2023-08-01T08:08:08;18.80;99.90
16955;DHT22;8594;52.052;8.354;2023-08-01T08:10:35;18.70;99.90
16955;DHT22;8594;52.052;8.354;2023-08-01T08:13:01;18.80;99.90
16955;DHT22;8594;52.052;8.354;2023-08-01T08:15:30;18.60;99.90
16955;DHT22;8594;52.052;8.354;2023-08-01T08:17:59;18.60;99.90
16955;DHT22;8594;52.052;8.354;2023-08-01T08:20:26;18.40;99.90
16955;DHT22;8594;52.052;8.354;2023-08-01T08:22:53;18.40;99.90
16955;DHT22;8594;52.052;8.354;2023-08-01T08:25:20;18.50;99.90
16955;DHT22;8594;52.052;8.354;2023-08-01T08:27:48;18.40;99.90
16955;DHT22;8594;52.052;8.354;2023-08-01T08:30:15;18.40;99.90
16955;DHT22;8594;52.052;8.354;2023-08-01T08:32:43;18.40;99.90
16955;DHT22;8594;52.052;8.354;2023-08-01T08:35:10;18.40;99.90
16955;DHT22;8594;52.052;8.354;2023-08-01T08:37:37;18.30;99.90
16955;DHT22;8594;52.052;8.354;2023-08-01T08:40:04;18.10;99.90
16955;DHT22;8594;52.052;8.354;2023-08-01T08:42:33;18.10;99.90
16955;DHT22;8594;52.052;8.354;2023-08-01T08:45:02;18.20;99.90
16955;DHT22;8594;52.052;8.354;2023-08-01T08:47:31;18.50;99.90
16955;DHT22;8594;52.052;8.354;2023-08-01T08:50:05;18.70;99.90
16955;DHT22;8594;52.052;8.354;2023-08-01T08:52:33;18.60;99.90
16955;DHT22;8594;52.052;8.354;2023-08-01T08:55:01;18.60;99.90
16955;DHT22;8594;52.052;8.354;2023-08-01T08:57:30;18.60;99.90
16955;DHT22;8594;52.052;8.354;2023-08-01T08:59:58;18.40;99.90
16955;DHT22;8594;52.052;8.354;2023-08-01T09:02:30;18.40;99.90
16955;DHT22;8594;52.052;8.354;2023-08-01T09:04:59;18.60;99.90
16955;DHT22;8594;52.052;8.354;2023-08-01T09:07:29;18.60;99.90
16955;DHT22;8594;52.052;8.354;2023-08-01T09:10:00;18.70;99.90
16955;DHT22;8594;52.052;8.354;2023-08-01T09:12:27;19.10;99.90
16955;DHT22;8594;52.052;8.354;2023-08-01T09:14:56;19.50;99.90
16955;DHT22;8594;52.052;8.354;2023-08-01T09:17:23;19.70;99.90
16955;DHT22;8594;52.052;8.354;2023-08-01T09:19:55;19.90;99.90
16955;DHT22;8594;52.052;8.354;2023-08-01T09:22:23;20.20;99.90
16955;DHT22;8594;52.052;8.354;2023-08-01T09:24:52;20.20;99.90
16955;DHT22;8594;52.052;8.354;2023-08-01T09:27:21;20.30;99.90
16955;DHT22;8594;52.052;8.354;2023-08-01T09:29:48;20.60;99.90
16955;DHT22;8594;52.052;8.354;2023-08-01T09:32:15;20.40;99.90
16955;DHT22;8594;52.052;8.354;2023-08-01T09:34:43;20.20;99.90
16955;DHT22;8594;52.052;8.354;2023-08-01T09:37:10;19.80;99.90
16955;DHT22;8594;52.052;8.354;2023-08-01T09:39:37;19.60;99.90
16955;DHT22;8594;52.052;8.354;2023-08-01T09:42:06;19.40;99.90
16955;DHT22;8594;52.052;8.354;2023-08-01T09:44:35;19.40;99.90
16955;DHT22;8594;52.052;8.354;2023-08-01T09:47:04;19.40;99.90
16955;DHT22;8594;52.052;8.354;2023-08-01T09:49:32;19.70;99.90
16955;DHT22;8594;52.052;8.354;2023-08-01T09:51:59;19.80;99.90
16955;DHT22;8594;52.052;8.354;2023-08-01T09:54:26;20.40;99.90
16955;DHT22;8594;52.052;8.354;2023-08-01T09:56:54;20.60;99.90
16955;DHT22;8594;52.052;8.354;2023-08-01T09:59:24;20.90;99.90
16955;DHT22;8594;52.052;8.354;2023-08-01T10:01:53;20.90;99.90
16955;DHT22;8594;52.052;8.354;2023-08-01T10:04:23;20.90;99.90
16955;DHT22;8594;52.052;8.354;2023-08-01T10:06:57;20.90;99.90
16955;DHT22;8594;52.052;8.354;2023-08-01T10:09:25;21.00;99.90
16955;DHT22;8594;52.052;8.354;2023-08-01T10:11:52;20.90;99.90
16955;DHT22;8594;52.052;8.354;2023-08-01T10:14:25;20.70;99.90
16955;DHT22;8594;52.052;8.354;2023-08-01T10:16:53;20.40;99.90
16955;DHT22;8594;52.052;8.354;2023-08-01T10:19:21;20.40;99.90
16955;DHT22;8594;52.052;8.354;2023-08-01T10:21:48;20.30;99.90
16955;DHT22;8594;52.052;8.354;2023-08-01T10:24:16;20.10;99.90
16955;DHT22;8594;52.052;8.354;2023-08-01T10:26:44;20.00;99.90
16955;DHT22;8594;52.052;8.354;2023-08-01T10:29:12;19.80;99.90
16955;DHT22;8594;52.052;8.354;2023-08-01T10:31:50;19.60;99.90
16955;DHT22;8594;52.052;8.354;2023-08-01T10:34:18;19.60;99.90
16955;DHT22;8594;52.052;8.354;2023-08-01T10:36:54;19.70;99.90
16955;DHT22;8594;52.052;8.354;2023-08-01T10:39:21;19.90;99.90
16955;DHT22;8594;52.052;8.354;2023-08-01T10:41:57;20.20;99.90
16955;DHT22;8594;52.052;8.354;2023-08-01T10:44:25;20.50;99.90
16955;DHT22;8594;52.052;8.354;2023-08-01T10:46:56;20.60;99.90
16955;DHT22;8594;52.052;8.354;2023-08-01T10:49:35;20.70;99.90
16955;DHT22;8594;52.052;8.354;2023-08-01T10:52:04;20.60;99.90
16955;DHT22;8594;52.052;8.354;2023-08-01T10:54:42;20.70;99.90
16955;DHT22;8594;52.052;8.354;2023-08-01T10:57:15;20.80;99.90
16955;DHT22;8594;52.052;8.354;2023-08-01T10:59:43;20.70;99.90
16955;DHT22;8594;52.052;8.354;2023-08-01T11:02:11;20.60;99.90
16955;DHT22;8594;52.052;8.354;2023-08-01T11:04:38;20.50;99.90
16955;DHT22;8594;52.052;8.354;2023-08-01T11:07:06;20.60;99.90
16955;DHT22;8594;52.052;8.354;2023-08-01T11:09:33;20.70;99.90
16955;DHT22;8594;52.052;8.354;2023-08-01T11:12:00;20.20;99.90
16955;DHT22;8594;52.052;8.354;2023-08-01T11:14:28;19.60;99.90
16955;DHT22;8594;52.052;8.354;2023-08-01T11:16:56;19.70;99.90
16955;DHT22;8594;52.052;8.354;2023-08-01T11:19:27;19.70;99.90
16955;DHT22;8594;52.052;8.354;2023-08-01T11:21:56;19.80;99.90
16955;DHT22;8594;52.052;8.354;2023-08-01T11:24:25;19.80;99.90
16955;DHT22;8594;52.052;8.354;2023-08-01T11:26:54;19.70;99.90
16955;DHT22;8594;52.052;8.354;2023-08-01T11:29:21;19.70;99.90
16955;DHT22;8594;52.052;8.354;2023-08-01T11:31:54;19.90;99.90
16955;DHT22;8594;52.052;8.354;2023-08-01T11:34:23;19.80;99.90
16955;DHT22;8594;52.052;8.354;2023-08-01T11:36:51;19.80;99.90
16955;DHT22;8594;52.052;8.354;2023-08-01T11:39:19;19.80;99.90
16955;DHT22;8594;52.052;8.354;2023-08-01T11:41:47;19.90;99.90
16955;DHT22;8594;52.052;8.354;2023-08-01T11:44:14;20.10;99.90
16955;DHT22;8594;52.052;8.354;2023-08-01T11:46:41;20.30;99.90
16955;DHT22;8594;52.052;8.354;2023-08-01T11:49:14;20.60;99.90
16955;DHT22;8594;52.052;8.354;2023-08-01T11:51:42;20.50;99.90
16955;DHT22;8594;52.052;8.354;2023-08-01T11:54:11;20.50;99.90
16955;DHT22;8594;52.052;8.354;2023-08-01T11:56:38;20.80;99.90
16955;DHT22;8594;52.052;8.354;2023-08-01T11:59:09;20.80;99.90
16955;DHT22;8594;52.052;8.354;2023-08-01T12:01:40;20.60;99.90
16955;DHT22;8594;52.052;8.354;2023-08-01T12:04:08;20.90;99.90
16955;DHT22;8594;52.052;8.354;2023-08-01T12:06:36;20.90;99.90
16955;DHT22;8594;52.052;8.354;2023-08-01T12:09:09;20.90;99.90
16955;DHT22;8594;52.052;8.354;2023-08-01T12:11:39;20.70;99.90
16955;DHT22;8594;52.052;8.354;2023-08-01T12:14:08;20.90;99.90
16955;DHT22;8594;52.052;8.354;2023-08-01T12:16:36;21.10;99.90
16955;DHT22;8594;52.052;8.354;2023-08-01T12:19:04;21.10;99.90
16955;DHT22;8594;52.052;8.354;2023-08-01T12:21:33;21.20;99.90
16955;DHT22;8594;52.052;8.354;2023-08-01T12:24:01;21.20;99.90
16955;DHT22;8594;52.052;8.354;2023-08-01T12:26:30;21.40;99.90
16955;DHT22;8594;52.052;8.354;2023-08-01T12:28:57;21.60;99.90
16955;DHT22;8594;52.052;8.354;2023-08-01T12:31:24;21.50;99.90
16955;DHT22;8594;52.052;8.354;2023-08-01T12:33:51;21.60;99.90
16955;DHT22;8594;52.052;8.354;2023-08-01T12:36:19;21.60;99.90
16955;DHT22;8594;52.052;8.354;2023-08-01T12:38:46;21.60;99.90
16955;DHT22;8594;52.052;8.354;2023-08-01T12:41:13;21.40;99.90
16955;DHT22;8594;52.052;8.354;2023-08-01T12:43:41;21.30;99.90
16955;DHT22;8594;52.052;8.354;2023-08-01T12:46:08;21.10;99.90
16955;DHT22;8594;52.052;8.354;2023-08-01T12:48:35;20.60;99.90
16955;DHT22;8594;52.052;8.354;2023-08-01T12:51:02;19.80;99.90
16955;DHT22;8594;52.052;8.354;2023-08-01T12:53:29;19.70;99.90
16955;DHT22;8594;52.052;8.354;2023-08-01T12:55:56;19.30;99.90
16955;DHT22;8594;52.052;8.354;2023-08-01T12:58:23;19.10;99.90
16955;DHT22;8594;52.052;8.354;2023-08-01T13:00:51;18.90;99.90
16955;DHT22;8594;52.052;8.354;2023-08-01T13:03:18;18.70;99.90
16955;DHT22;8594;52.052;8.354;2023-08-01T13:05:45;18.60;99.90
16955;DHT22;8594;52.052;8.354;2023-08-01T13:08:12;18.60;99.90
16955;DHT22;8594;52.052;8.354;2023-08-01T13:10:39;18.60;99.90
16955;DHT22;8594;52.052;8.354;2023-08-01T13:13:06;19.10;99.90
16955;DHT22;8594;52.052;8.354;2023-08-01T13:15:33;19.30;99.90
16955;DHT22;8594;52.052;8.354;2023-08-01T13:18:01;19.60;99.90
16955;DHT22;8594;52.052;8.354;2023-08-01T13:20:28;19.90;99.90
16955;DHT22;8594;52.052;8.354;2023-08-01T13:22:56;19.90;99.90
16955;DHT22;8594;52.052;8.354;2023-08-01T13:25:23;19.90;99.90
16955;DHT22;8594;52.052;8.354;2023-08-01T13:27:50;20.10;99.90
16955;DHT22;8594;52.052;8.354;2023-08-01T13:30:17;20.30;99.90
16955;DHT22;8594;52.052;8.354;2023-08-01T13:32:44;20.50;99.90
16955;DHT22;8594;52.052;8.354;2023-08-01T13:35:13;20.40;99.90
16955;DHT22;8594;52.052;8.354;2023-08-01T13:37:40;20.60;99.90
16955;DHT22;8594;52.052;8.354;2023-08-01T13:40:08;20.60;99.90
16955;DHT22;8594;52.052;8.354;2023-08-01T13:42:37;20.60;99.90
16955;DHT22;8594;52.052;8.354;2023-08-01T13:45:05;20.70;99.90
16955;DHT22;8594;52.052;8.354;2023-08-01T13:47:32;20.70;99.90
16955;DHT22;8594;52.052;8.354;2023-08-01T13:49:59;20.50;99.90
16955;DHT22;8594;52.052;8.354;2023-08-01T13:52:27;20.40;99.90
16955;DHT22;8594;52.052;8.354;2023-08-01T13:54:54;20.30;99.90
16955;DHT22;8594;52.052;8.354;2023-08-01T13:57:21;20.40;99.90
16955;DHT22;8594;52.052;8.354;2023-08-01T13:59:49;20.40;99.90
16955;DHT22;8594;52.052;8.354;2023-08-01T14:02:16;20.60;99.90
16955;DHT22;8594;52.052;8.354;2023-08-01T14:04:42;20.90;99.90
16955;DHT22;8594;52.052;8.354;2023-08-01T14:07:09;21.10;99.90
16955;DHT22;8594;52.052;8.354;2023-08-01T14:09:37;21.30;99.90
16955;DHT22;8594;52.052;8.354;2023-08-01T14:12:06;21.20;99.90
16955;DHT22;8594;52.052;8.354;2023-08-01T14:14:33;21.20;99.90
16955;DHT22;8594;52.052;8.354;2023-08-01T14:17:00;20.90;99.90
16955;DHT22;8594;52.052;8.354;2023-08-01T14:19:27;20.80;99.90
16955;DHT22;8594;52.052;8.354;2023-08-01T14:21:55;20.70;99.90
16955;DHT22;8594;52.052;8.354;2023-08-01T14:24:22;21.00;99.90
16955;DHT22;8594;52.052;8.354;2023-08-01T14:26:51;21.00;99.90
16955;DHT22;8594;52.052;8.354;2023-08-01T14:29:18;21.10;99.90
16955;DHT22;8594;52.052;8.354;2023-08-01T14:31:47;21.40;99.90
16955;DHT22;8594;52.052;8.354;2023-08-01T14:34:15;21.20;99.90
16955;DHT22;8594;52.052;8.354;2023-08-01T14:36:42;21.30;99.90
16955;DHT22;8594;52.052;8.354;2023-08-01T14:39:09;21.40;99.90
16955;DHT22;8594;52.052;8.354;2023-08-01T14:41:36;21.40;99.90
16955;DHT22;8594;52.052;8.354;2023-08-01T14:44:04;21.30;99.90
16955;DHT22;8594;52.052;8.354;2023-08-01T14:46:31;21.20;99.90
16955;DHT22;8594;52.052;8.354;2023-08-01T14:48:58;21.10;99.90
16955;DHT22;8594;52.052;8.354;2023-08-01T14:51:25;21.20;99.90
16955;DHT22;8594;52.052;8.354;2023-08-01T14:53:52;21.30;99.90
16955;DHT22;8594;52.052;8.354;2023-08-01T14:56:19;21.30;99.90
16955;DHT22;8594;52.052;8.354;2023-08-01T14:58:45;21.30;99.90
16955;DHT22;8594;52.052;8.354;2023-08-01T15:01:14;21.30;99.90
16955;DHT22;8594;52.052;8.354;2023-08-01T15:03:41;21.20;99.90
16955;DHT22;8594;52.052;8.354;2023-08-01T15:06:08;21.40;99.90
16955;DHT22;8594;52.052;8.354;2023-08-01T15:08:38;21.30;99.90
16955;DHT22;8594;52.052;8.354;2023-08-01T15:11:05;21.20;99.90
16955;DHT22;8594;52.052;8.354;2023-08-01T15:13:33;21.30;99.90
16955;DHT22;8594;52.052;8.354;2023-08-01T15:16:01;21.40;99.90
16955;DHT22;8594;52.052;8.354;2023-08-01T15:18:28;21.40;99.90
16955;DHT22;8594;52.052;8.354;2023-08-01T15:20:56;21.50;99.90
16955;DHT22;8594;52.052;8.354;2023-08-01T15:23:23;21.40;99.90
16955;DHT22;8594;52.052;8.354;2023-08-01T15:25:54;21.20;99.90
16955;DHT22;8594;52.052;8.354;2023-08-01T15:28:22;21.20;99.90
16955;DHT22;8594;52.052;8.354;2023-08-01T15:31:01;21.30;99.90
16955;DHT22;8594;52.052;8.354;2023-08-01T15:33:32;21.10;99.90
16955;DHT22;8594;52.052;8.354;2023-08-01T15:36:00;20.90;99.90
16955;DHT22;8594;52.052;8.354;2023-08-01T15:38:30;20.70;99.90
16955;DHT22;8594;52.052;8.354;2023-08-01T15:40:58;20.70;99.90
16955;DHT22;8594;52.052;8.354;2023-08-01T15:43:28;20.60;99.90
16955;DHT22;8594;52.052;8.354;2023-08-01T15:45:56;20.30;99.90
16955;DHT22;8594;52.052;8.354;2023-08-01T15:48:22;20.40;99.90